Time;durP1;ratioP1;P1;durP2;ratioP2;P2;SDS_P1;SDS_P2;PMS_P1;PMS_P2;Temp;Humidity;BMP_temperature;BMP_pressure;BME280_temperature;BME280_humidity;BME280_pressure;Samples;Min_cycle;Max_cycle;Signal;HPM_P1;HPM_P2
2024/04/09 00:01:01;;;;;;;0.10;0.10;;;9.50;74.30;;;;;;5420261;26;20314;-82
2024/04/09 00:03:29;;;;;;;0.10;0.10;;;9.40;74.40;;;;;;5419466;26;19999;-82
2024/04/09 00:05:55;;;;;;;0.10;0.10;;;9.50;74.40;;;;;;5415261;26;19991;-82
2024/04/09 00:08:21;;;;;;;0.10;0.10;;;9.50;74.50;;;;;;5387214;26;20302;-81
2024/04/09 00:10:47;;;;;;;0.10;0.10;;;9.40;74.60;;;;;;5385273;26;20039;-81
2024/04/09 00:13:14;;;;;;;0.10;0.10;;;9.40;75.10;;;;;;5383706;26;20001;-82
2024/04/09 00:15:40;;;;;;;0.10;0.10;;;9.40;75.10;;;;;;5393521;26;20003;-81
2024/04/09 00:18:11;;;;;;;0.10;0.10;;;9.30;75.50;;;;;;5422615;26;19995;-82
2024/04/09 00:20:42;;;;;;;0.10;0.10;;;9.30;75.60;;;;;;5422200;26;20004;-82
2024/04/09 00:23:09;;;;;;;0.10;0.10;;;9.30;75.60;;;;;;5418270;26;20068;-81
2024/04/09 00:25:37;;;;;;;0.10;0.10;;;9.30;75.70;;;;;;5422878;26;19999;-83
2024/04/09 00:28:03;;;;;;;0.10;0.10;;;9.20;76.00;;;;;;5420779;26;19991;-82
2024/04/09 00:30:29;;;;;;;0.10;0.10;;;9.20;76.10;;;;;;5421927;26;20399;-81
2024/04/09 00:32:55;;;;;;;0.10;0.10;;;9.20;76.30;;;;;;5407836;26;20000;-81
2024/04/09 00:35:21;;;;;;;0.10;0.10;;;9.10;76.00;;;;;;5385506;26;20019;-82
2024/04/09 00:37:54;;;;;;;0.10;0.10;;;9.10;76.30;;;;;;5386983;26;20019;-81
2024/04/09 00:40:26;;;;;;;;;;;9.20;75.80;;;;;;5387507;26;20007;-81
2024/04/09 00:42:55;;;;;;;0.10;0.10;;;9.20;75.60;;;;;;5386822;26;19925;-83
2024/04/09 00:45:23;;;;;;;0.10;0.10;;;9.20;75.20;;;;;;5386444;26;20019;-82
2024/04/09 00:47:53;;;;;;;0.10;0.10;;;9.10;75.00;;;;;;5384262;26;20000;-81
2024/04/09 00:50:20;;;;;;;0.10;0.10;;;9.20;74.90;;;;;;5414646;26;20338;-81
2024/04/09 00:52:48;;;;;;;0.10;0.10;;;9.10;75.10;;;;;;5386870;26;20004;-82
2024/04/09 00:55:15;;;;;;;0.10;0.10;;;9.10;74.60;;;;;;5383902;26;19996;-82
2024/04/09 00:57:47;;;;;;;0.10;0.10;;;9.10;74.70;;;;;;5384566;26;20012;-82
2024/04/09 01:00:16;;;;;;;0.10;0.10;;;9.20;74.40;;;;;;5392974;26;19997;-81
2024/04/09 01:02:42;;;;;;;0.10;0.10;;;9.10;74.30;;;;;;5417429;26;20008;-81
2024/04/09 01:05:09;;;;;;;0.10;0.10;;;9.10;74.20;;;;;;5413815;26;20017;-82
2024/04/09 01:07:37;;;;;;;0.10;0.10;;;9.10;74.40;;;;;;5414064;26;20050;-82
2024/04/09 01:10:04;;;;;;;0.10;0.10;;;9.00;74.20;;;;;;5386572;26;20012;-81
2024/04/09 01:12:30;;;;;;;0.10;0.10;;;9.00;74.10;;;;;;5416996;26;20003;-82
2024/04/09 01:14:56;;;;;;;0.10;0.10;;;9.10;74.10;;;;;;5419027;26;20018;-82
2024/04/09 01:17:23;;;;;;;0.10;0.10;;;9.10;74.00;;;;;;5419096;26;20022;-82
2024/04/09 01:19:48;;;;;;;0.10;0.10;;;9.00;73.90;;;;;;5385161;26;20066;-82
2024/04/09 01:22:14;;;;;;;0.10;0.10;;;9.00;73.70;;;;;;5413040;26;20466;-82
2024/04/09 01:24:40;;;;;;;0.10;0.10;;;9.00;73.50;;;;;;5394734;26;20012;-82
2024/04/09 01:27:10;;;;;;;0.10;0.10;;;9.00;73.40;;;;;;5384358;26;20031;-82
2024/04/09 01:29:35;;;;;;;0.10;0.10;;;8.90;73.40;;;;;;5388202;26;19995;-82
2024/04/09 01:32:01;;;;;;;0.10;0.10;;;8.90;73.00;;;;;;5419377;26;19999;-82
2024/04/09 01:34:27;;;;;;;0.10;0.10;;;8.90;72.70;;;;;;5396802;26;20442;-82
2024/04/09 01:36:55;;;;;;;0.10;0.10;;;9.00;72.80;;;;;;5395997;26;20532;-81
2024/04/09 01:39:20;;;;;;;0.10;0.10;;;8.80;72.70;;;;;;5384093;26;20012;-82
2024/04/09 01:41:46;;;;;;;0.10;0.10;;;8.80;72.90;;;;;;5382947;26;19996;-82
2024/04/09 01:44:12;;;;;;;0.10;0.10;;;8.80;73.00;;;;;;5384510;26;19996;-81
2024/04/09 01:46:37;;;;;;;0.10;0.10;;;8.90;73.10;;;;;;5386151;26;20006;-82
2024/04/09 01:49:04;;;;;;;0.10;0.10;;;8.80;72.80;;;;;;5383084;26;20014;-82
2024/04/09 01:51:30;;;;;;;0.10;0.10;;;8.90;72.90;;;;;;5384220;26;20046;-81
2024/04/09 01:53:55;;;;;;;0.10;0.10;;;8.80;72.90;;;;;;5385525;26;20011;-82
2024/04/09 01:56:21;;;;;;;0.10;0.10;;;8.80;73.20;;;;;;5400861;26;20035;-82
2024/04/09 01:58:47;;;;;;;0.10;0.10;;;8.80;73.30;;;;;;5417311;26;19991;-82
2024/04/09 02:01:14;;;;;;;0.10;0.10;;;8.70;73.40;;;;;;5413272;26;20104;-82
2024/04/09 02:03:40;;;;;;;0.10;0.10;;;8.70;73.60;;;;;;5422508;26;20092;-82
2024/04/09 02:06:07;;;;;;;0.10;0.10;;;8.80;73.70;;;;;;5439255;26;20004;-82
2024/04/09 02:08:33;;;;;;;0.10;0.10;;;8.70;73.60;;;;;;5384408;26;20011;-82
2024/04/09 02:10:59;;;;;;;0.10;0.10;;;8.70;74.00;;;;;;5385672;26;20009;-81
2024/04/09 02:13:25;;;;;;;0.10;0.10;;;8.70;74.00;;;;;;5383651;26;20000;-81
2024/04/09 02:15:52;;;;;;;0.03;0.03;;;8.70;74.20;;;;;;5410702;26;19997;-81
2024/04/09 02:18:17;;;;;;;0.10;0.10;;;8.60;74.50;;;;;;5399858;26;20014;-81
2024/04/09 02:20:47;;;;;;;0.10;0.10;;;8.60;74.50;;;;;;5421140;26;20000;-82
2024/04/09 02:23:13;;;;;;;0.10;0.10;;;8.70;74.50;;;;;;5416845;26;20010;-82
2024/04/09 02:25:42;;;;;;;0.10;0.10;;;8.70;74.70;;;;;;5384819;26;20000;-81
2024/04/09 02:28:08;;;;;;;0.10;0.10;;;8.70;74.70;;;;;;5383188;26;20001;-81
2024/04/09 02:30:34;;;;;;;0.10;0.10;;;8.70;74.90;;;;;;5396561;26;20014;-81
2024/04/09 02:32:59;;;;;;;0.10;0.10;;;8.60;75.10;;;;;;5385504;26;20046;-82
2024/04/09 02:35:25;;;;;;;0.10;0.10;;;8.60;75.20;;;;;;5383411;26;20008;-82
2024/04/09 02:37:51;;;;;;;0.00;0.00;;;8.70;75.00;;;;;;5384845;26;20077;-82
2024/04/09 02:40:17;;;;;;;0.10;0.10;;;8.70;75.00;;;;;;5383086;26;20001;-81
2024/04/09 02:42:43;;;;;;;0.10;0.10;;;8.70;74.90;;;;;;5382583;26;20322;-81
2024/04/09 02:45:09;;;;;;;0.10;0.10;;;8.50;75.00;;;;;;5383302;26;20307;-82
2024/04/09 02:47:36;;;;;;;0.10;0.10;;;8.60;74.90;;;;;;5384786;26;20010;-82
2024/04/09 02:50:02;;;;;;;0.10;0.10;;;8.60;75.00;;;;;;5383356;26;20077;-82
2024/04/09 02:52:29;;;;;;;0.10;0.10;;;8.50;75.10;;;;;;5382811;26;20000;-82
2024/04/09 02:54:55;;;;;;;0.10;0.10;;;8.60;74.80;;;;;;5384706;26;20012;-82
2024/04/09 02:57:20;;;;;;;0.10;0.10;;;8.60;74.80;;;;;;5384340;26;20004;-81
2024/04/09 02:59:46;;;;;;;0.10;0.10;;;8.50;75.00;;;;;;5398634;26;20011;-82
2024/04/09 03:02:12;;;;;;;0.10;0.10;;;8.60;74.80;;;;;;5382680;26;19992;-82
2024/04/09 03:04:37;;;;;;;0.10;0.10;;;8.50;74.70;;;;;;5450010;26;20023;-82
2024/04/09 03:07:04;;;;;;;0.10;0.10;;;8.50;74.70;;;;;;5437821;26;20076;-82
2024/04/09 03:09:31;;;;;;;0.10;0.10;;;8.60;74.60;;;;;;5417420;26;19999;-82
2024/04/09 03:11:56;;;;;;;0.10;0.10;;;8.50;74.50;;;;;;5413355;26;20103;-81
2024/04/09 03:14:23;;;;;;;0.10;0.10;;;8.50;74.40;;;;;;5384694;26;20443;-83
2024/04/09 03:16:50;;;;;;;0.10;0.10;;;8.40;74.30;;;;;;5381949;26;19996;-81
2024/04/09 03:19:18;;;;;;;0.10;0.10;;;8.40;74.40;;;;;;5382555;26;20039;-81
2024/04/09 03:21:44;;;;;;;0.10;0.10;;;8.50;73.90;;;;;;5382597;26;20011;-81
2024/04/09 03:24:10;;;;;;;0.10;0.10;;;8.50;73.80;;;;;;5383860;26;20007;-81
2024/04/09 03:26:36;;;;;;;0.10;0.10;;;8.40;74.00;;;;;;5384354;26;20001;-81
2024/04/09 03:29:02;;;;;;;0.10;0.10;;;8.50;73.70;;;;;;5381530;26;20000;-81
2024/04/09 03:31:28;;;;;;;0.10;0.10;;;8.40;73.50;;;;;;5403083;26;20015;-81
2024/04/09 03:33:54;;;;;;;0.10;0.10;;;8.40;73.70;;;;;;5381771;26;20016;-82
2024/04/09 03:36:20;;;;;;;0.10;0.10;;;8.40;73.60;;;;;;5383797;26;20008;-81
2024/04/09 03:38:46;;;;;;;0.10;0.10;;;8.40;73.60;;;;;;5381957;26;20000;-81
2024/04/09 03:41:11;;;;;;;0.10;0.10;;;8.50;73.40;;;;;;5382446;26;19996;-81
2024/04/09 03:43:37;;;;;;;0.10;0.10;;;8.50;73.40;;;;;;5383841;26;20628;-81
2024/04/09 03:46:14;;;;;;;0.10;0.10;;;8.50;73.40;;;;;;5383358;26;20015;-81
2024/04/09 03:48:45;;;;;;;0.10;0.10;;;8.40;73.80;;;;;;5385131;26;20028;-81
2024/04/09 03:51:15;;;;;;;0.10;0.10;;;8.40;73.80;;;;;;5387250;26;19996;-82
2024/04/09 03:53:41;;;;;;;0.10;0.10;;;8.40;73.70;;;;;;5386349;26;20004;-82
2024/04/09 03:56:07;;;;;;;0.10;0.10;;;8.40;74.10;;;;;;5399066;26;20002;-81
2024/04/09 03:58:44;;;;;;;0.10;0.10;;;8.40;74.30;;;;;;5423219;26;20007;-81
2024/04/09 04:01:10;;;;;;;0.10;0.10;;;8.30;74.50;;;;;;5399643;26;20402;-82
2024/04/09 04:03:46;;;;;;;0.10;0.10;;;8.40;74.60;;;;;;5418497;26;19998;-82
2024/04/09 04:06:12;;;;;;;0.10;0.10;;;8.40;74.60;;;;;;5386656;26;20016;-82
2024/04/09 04:08:39;;;;;;;0.10;0.10;;;8.30;75.00;;;;;;5394389;26;20050;-81
2024/04/09 04:11:06;;;;;;;0.10;0.10;;;8.30;75.00;;;;;;5384865;26;20000;-81
2024/04/09 04:13:33;;;;;;;0.10;0.10;;;8.20;74.90;;;;;;5385221;26;19995;-82
2024/04/09 04:16:07;;;;;;;0.10;0.10;;;8.30;74.90;;;;;;5387380;26;20439;-82
2024/04/09 04:18:39;;;;;;;0.10;0.10;;;8.30;74.90;;;;;;5387502;26;20066;-81
2024/04/09 04:21:06;;;;;;;0.10;0.10;;;8.20;75.10;;;;;;5386868;26;20012;-82
2024/04/09 04:23:31;;;;;;;0.10;0.10;;;8.20;75.40;;;;;;5384374;26;20000;-82
2024/04/09 04:26:02;;;;;;;0.10;0.10;;;8.30;75.10;;;;;;5386428;26;19996;-82
2024/04/09 04:28:39;;;;;;;0.10;0.10;;;8.20;75.10;;;;;;5403479;26;20009;-82
2024/04/09 04:31:09;;;;;;;0.10;0.10;;;8.20;75.00;;;;;;5422514;26;20015;-82
2024/04/09 04:33:38;;;;;;;0.10;0.10;;;8.30;74.90;;;;;;5398784;26;20008;-82
2024/04/09 04:36:05;;;;;;;0.10;0.10;;;8.20;75.00;;;;;;5414189;26;20000;-82
2024/04/09 04:38:31;;;;;;;0.10;0.10;;;8.20;74.90;;;;;;5386640;26;20008;-81
2024/04/09 04:40:57;;;;;;;0.10;0.10;;;8.20;74.80;;;;;;5398116;26;20437;-82
2024/04/09 04:43:23;;;;;;;0.10;0.10;;;8.20;75.00;;;;;;5386063;26;20032;-81
2024/04/09 04:45:51;;;;;;;0.10;0.10;;;8.10;75.40;;;;;;5383593;26;20031;-81
2024/04/09 04:48:18;;;;;;;0.10;0.10;;;8.20;75.30;;;;;;5384638;26;20376;-82
2024/04/09 04:50:45;;;;;;;0.10;0.10;;;8.20;75.30;;;;;;5384498;26;20004;-82
2024/04/09 04:53:11;;;;;;;0.10;0.10;;;8.20;75.20;;;;;;5386088;26;20409;-82
2024/04/09 04:55:37;;;;;;;0.10;0.10;;;8.10;75.30;;;;;;5386255;26;20003;-75
2024/04/09 04:58:04;;;;;;;0.10;0.10;;;8.20;75.10;;;;;;5386389;26;20000;-75
2024/04/09 05:00:29;;;;;;;0.10;0.10;;;8.20;75.00;;;;;;5394692;26;20070;-75
2024/04/09 05:02:55;;;;;;;0.10;0.10;;;8.20;75.10;;;;;;5414847;26;20015;-75
2024/04/09 05:05:21;;;;;;;0.10;0.10;;;8.20;74.70;;;;;;5403295;26;20089;-74
2024/04/09 05:07:50;;;;;;;0.10;0.10;;;8.30;74.90;;;;;;5420425;26;20075;-74
2024/04/09 05:10:22;;;;;;;0.10;0.10;;;8.30;74.80;;;;;;5386526;26;20011;-74
2024/04/09 05:12:49;;;;;;;0.10;0.10;;;8.20;74.60;;;;;;5385875;26;20000;-73
2024/04/09 05:15:15;;;;;;;0.10;0.10;;;8.20;74.70;;;;;;5386057;26;20012;-73
2024/04/09 05:17:41;;;;;;;0.10;0.10;;;8.20;74.60;;;;;;5420554;26;20454;-75
2024/04/09 05:20:11;;;;;;;0.10;0.10;;;8.20;74.70;;;;;;5397258;26;19996;-75
2024/04/09 05:22:42;;;;;;;0.10;0.10;;;8.20;74.60;;;;;;5384414;26;20011;-77
2024/04/09 05:25:11;;;;;;;0.10;0.10;;;8.20;74.90;;;;;;5383703;26;20137;-76
2024/04/09 05:27:37;;;;;;;0.10;0.10;;;8.20;74.70;;;;;;5385830;26;20073;-77
2024/04/09 05:30:04;;;;;;;0.10;0.10;;;8.20;74.80;;;;;;5395639;26;19996;-76
2024/04/09 05:32:31;;;;;;;0.10;0.10;;;8.20;74.90;;;;;;5411550;26;20311;-76
2024/04/09 05:34:57;;;;;;;0.10;0.10;;;8.20;74.80;;;;;;5380467;26;20002;-73
2024/04/09 05:37:23;;;;;;;0.10;0.10;;;8.20;74.70;;;;;;5384157;26;20000;-75
2024/04/09 05:39:48;;;;;;;0.10;0.10;;;8.20;74.50;;;;;;5385246;26;20010;-76
2024/04/09 05:42:15;;;;;;;0.10;0.10;;;8.20;74.80;;;;;;5389975;26;20345;-76
2024/04/09 05:44:41;;;;;;;0.10;0.10;;;8.20;74.70;;;;;;5385427;26;20091;-75
2024/04/09 05:47:08;;;;;;;0.10;0.10;;;8.20;74.60;;;;;;5399362;26;20018;-75
2024/04/09 05:49:34;;;;;;;0.10;0.10;;;8.20;74.60;;;;;;5385477;26;20010;-77
2024/04/09 05:52:00;;;;;;;0.10;0.10;;;8.20;74.50;;;;;;5382378;26;20343;-76
2024/04/09 05:54:26;;;;;;;0.10;0.10;;;8.30;74.30;;;;;;5384030;26;20014;-76
2024/04/09 05:56:52;;;;;;;0.10;0.10;;;8.30;74.00;;;;;;5404345;26;20007;-77
2024/04/09 05:59:18;;;;;;;0.10;0.10;;;8.30;74.00;;;;;;5395127;26;20335;-77
2024/04/09 06:01:44;;;;;;;0.10;0.10;;;8.30;73.90;;;;;;5420493;26;19995;-77
2024/04/09 06:04:10;;;;;;;0.10;0.10;;;8.40;73.80;;;;;;5447268;26;20067;-77
2024/04/09 06:06:36;;;;;;;0.10;0.10;;;8.40;73.80;;;;;;5455742;26;19995;-77
2024/04/09 06:09:02;;;;;;;0.10;0.10;;;8.40;73.60;;;;;;5402663;26;20004;-77
2024/04/09 06:11:28;;;;;;;0.10;0.10;;;8.30;73.40;;;;;;5384481;26;20004;-77
2024/04/09 06:13:54;;;;;;;0.10;0.10;;;8.40;73.60;;;;;;5384051;26;20463;-77
2024/04/09 06:16:20;;;;;;;0.10;0.10;;;8.40;73.60;;;;;;5385295;26;20004;-77
2024/04/09 06:18:46;;;;;;;0.10;0.10;;;8.50;73.70;;;;;;5385069;26;20028;-77
2024/04/09 06:21:14;;;;;;;0.10;0.10;;;8.50;73.30;;;;;;5419711;26;19996;-77
2024/04/09 06:23:39;;;;;;;0.10;0.10;;;8.60;73.50;;;;;;5418657;26;19996;-77
2024/04/09 06:26:05;;;;;;;0.10;0.10;;;8.60;73.30;;;;;;5420855;26;20010;-77
2024/04/09 06:28:32;;;;;;;0.10;0.10;;;8.60;73.30;;;;;;5412986;26;20014;-77
2024/04/09 06:30:57;;;;;;;0.10;0.10;;;8.60;73.50;;;;;;5418339;26;20586;-77
2024/04/09 06:33:25;;;;;;;0.10;0.10;;;8.60;73.70;;;;;;5444819;26;20016;-77
2024/04/09 06:35:51;;;;;;;0.10;0.10;;;8.60;73.70;;;;;;5418509;26;20205;-76
2024/04/09 06:38:16;;;;;;;0.10;0.10;;;8.70;73.40;;;;;;5408391;26;19999;-76
2024/04/09 06:40:42;;;;;;;0.10;0.10;;;8.70;73.50;;;;;;5433434;26;20019;-77
2024/04/09 06:43:08;;;;;;;0.10;0.10;;;8.70;73.10;;;;;;5419893;26;20007;-77
2024/04/09 06:45:33;;;;;;;0.10;0.10;;;8.70;73.30;;;;;;5431162;26;20014;-77
2024/04/09 06:47:59;;;;;;;0.10;0.10;;;8.80;73.10;;;;;;5419346;26;20018;-77
2024/04/09 06:50:25;;;;;;;0.10;0.10;;;8.80;73.20;;;;;;5407175;26;20004;-77
2024/04/09 06:52:51;;;;;;;0.10;0.10;;;8.90;73.10;;;;;;5382027;26;20454;-77
2024/04/09 06:55:17;;;;;;;0.10;0.10;;;8.90;72.50;;;;;;5382510;26;20348;-77
2024/04/09 06:57:45;;;;;;;0.10;0.10;;;9.00;72.70;;;;;;5381245;26;20012;-77
2024/04/09 07:00:11;;;;;;;0.10;0.10;;;9.30;72.10;;;;;;5397635;26;20350;-77
2024/04/09 07:02:37;;;;;;;0.10;0.10;;;9.30;71.80;;;;;;5416541;26;19999;-77
2024/04/09 07:05:03;;;;;;;0.10;0.10;;;9.40;71.70;;;;;;5444291;26;20010;-77
2024/04/09 07:07:29;;;;;;;0.10;0.10;;;9.50;71.60;;;;;;5397174;26;20011;-77
2024/04/09 07:09:54;;;;;;;0.10;0.10;;;9.50;71.30;;;;;;5383932;26;20082;-77
2024/04/09 07:12:20;;;;;;;0.10;0.10;;;9.60;71.00;;;;;;5383317;26;20000;-77
2024/04/09 07:14:46;;;;;;;0.10;0.10;;;9.60;71.40;;;;;;5383816;26;20000;-77
2024/04/09 07:17:11;;;;;;;0.10;0.10;;;9.70;70.70;;;;;;5382838;26;19996;-77
2024/04/09 07:19:37;;;;;;;0.10;0.10;;;10.00;70.40;;;;;;5383963;26;20032;-77
2024/04/09 07:22:03;;;;;;;0.20;0.20;;;10.10;69.80;;;;;;5392398;26;20007;-78
2024/04/09 07:24:28;;;;;;;0.20;0.20;;;10.20;69.20;;;;;;5387301;26;20000;-77
2024/04/09 07:26:54;;;;;;;0.20;0.20;;;10.70;67.90;;;;;;5387606;26;20007;-78
2024/04/09 07:29:20;;;;;;;0.20;0.20;;;11.10;67.10;;;;;;5387005;26;20000;-77
2024/04/09 07:31:45;;;;;;;0.30;0.30;;;12.00;64.50;;;;;;5405764;26;19998;-77
2024/04/09 07:34:11;;;;;;;0.40;0.40;;;12.40;62.60;;;;;;5439256;26;19999;-75
2024/04/09 07:36:37;;;;;;;0.40;0.40;;;13.50;59.20;;;;;;5449792;26;20008;-75
2024/04/09 07:39:03;;;;;;;0.40;0.40;;;15.40;55.90;;;;;;5434054;26;20014;-76
2024/04/09 07:41:29;;;;;;;0.40;0.40;;;17.50;49.30;;;;;;5420860;26;20003;-77
2024/04/09 07:43:55;;;;;;;0.40;0.40;;;19.20;46.30;;;;;;5420256;26;20442;-77
2024/04/09 07:46:21;;;;;;;0.40;0.40;;;20.30;42.20;;;;;;5417907;26;20088;-77
2024/04/09 07:48:47;;;;;;;0.40;0.40;;;20.90;40.50;;;;;;5415506;26;20003;-77
2024/04/09 07:51:13;;;;;;;0.40;0.40;;;21.60;39.40;;;;;;5419878;26;19999;-77
2024/04/09 07:53:39;;;;;;;0.50;0.50;;;22.40;37.00;;;;;;5419104;26;20010;-77
2024/04/09 07:56:05;;;;;;;0.60;0.60;;;23.00;35.70;;;;;;5419260;26;20329;-78
2024/04/09 07:58:31;;;;;;;0.50;0.50;;;22.80;34.40;;;;;;5422113;26;20035;-77
2024/04/09 08:00:57;;;;;;;0.47;0.47;;;23.30;34.50;;;;;;5414439;26;20019;-77
2024/04/09 08:03:22;;;;;;;0.40;0.40;;;23.60;33.80;;;;;;5420377;26;20000;-77
2024/04/09 08:05:48;;;;;;;1.65;1.55;;;23.80;33.20;;;;;;5384546;26;20358;-77
2024/04/09 08:08:14;;;;;;;0.40;0.40;;;24.30;32.80;;;;;;5386202;26;19996;-77
2024/04/09 08:10:43;;;;;;;0.50;0.50;;;24.00;33.60;;;;;;5385983;26;20007;-77
2024/04/09 08:13:10;;;;;;;0.60;0.60;;;23.50;33.70;;;;;;5385804;26;20032;-77
2024/04/09 08:15:36;;;;;;;0.50;0.50;;;23.90;33.50;;;;;;5384469;26;20032;-77
2024/04/09 08:18:02;;;;;;;0.60;0.60;;;23.90;33.50;;;;;;5386339;26;20351;-77
2024/04/09 08:20:28;;;;;;;0.88;0.88;;;24.50;33.50;;;;;;5383308;26;20028;-77
2024/04/09 08:22:54;;;;;;;0.40;0.40;;;24.60;32.70;;;;;;5386414;26;20016;-77
2024/04/09 08:25:20;;;;;;;2.47;2.38;;;24.50;33.30;;;;;;5384702;26;20569;-77
2024/04/09 08:27:46;;;;;;;0.50;0.50;;;24.20;32.50;;;;;;5385009;26;20004;-77
2024/04/09 08:30:14;;;;;;;0.60;0.60;;;24.40;33.20;;;;;;5390050;26;20011;-77
2024/04/09 08:32:42;;;;;;;1.58;1.55;;;24.40;32.70;;;;;;5384375;26;20004;-77
2024/04/09 08:35:08;;;;;;;0.40;0.40;;;25.00;32.20;;;;;;5383913;26;20000;-78
2024/04/09 08:37:34;;;;;;;1.10;1.10;;;25.00;32.10;;;;;;5418800;26;20014;-77
2024/04/09 08:40:00;;;;;;;0.13;0.13;;;25.10;32.00;;;;;;5408169;26;20442;-78
2024/04/09 08:42:26;;;;;;;0.70;0.70;;;25.00;31.90;;;;;;5386684;26;20084;-77
2024/04/09 08:44:55;;;;;;;0.80;0.80;;;23.60;33.70;;;;;;5403853;26;20014;-77
2024/04/09 08:47:23;;;;;;;0.25;0.25;;;24.50;33.00;;;;;;5421217;26;20043;-77
2024/04/09 08:49:49;;;;;;;0.45;0.45;;;25.00;31.80;;;;;;5419516;26;20018;-78
2024/04/09 08:52:19;;;;;;;0.60;0.60;;;24.60;32.70;;;;;;5419730;26;20069;-77
2024/04/09 08:54:45;;;;;;;0.70;0.70;;;24.30;34.20;;;;;;5399024;26;20015;-77
2024/04/09 08:57:11;;;;;;;0.70;0.70;;;24.20;33.80;;;;;;5386076;26;19996;-77
2024/04/09 08:59:37;;;;;;;0.70;0.70;;;24.60;32.70;;;;;;5405224;26;20000;-77
2024/04/09 09:02:15;;;;;;;0.20;0.20;;;25.30;32.70;;;;;;5384162;26;20032;-77
2024/04/09 09:04:43;;;;;;;0.10;0.10;;;24.10;33.50;;;;;;5452394;26;19999;-77
2024/04/09 09:07:19;;;;;;;0.80;0.80;;;22.80;34.80;;;;;;5434168;26;20312;-77
2024/04/09 09:09:47;;;;;;;0.00;0.00;;;22.20;36.10;;;;;;5385156;26;20000;-77
2024/04/09 09:12:13;;;;;;;0.82;0.82;;;22.00;36.10;;;;;;5386111;26;20054;-77
2024/04/09 09:14:49;;;;;;;0.90;0.90;;;22.90;35.80;;;;;;5385763;26;21210;-77
2024/04/09 09:17:15;;;;;;;0.90;0.90;;;23.40;35.70;;;;;;5384293;26;20001;-77
2024/04/09 09:19:41;;;;;;;0.90;0.90;;;23.90;34.60;;;;;;5384114;26;20008;-77
2024/04/09 09:22:11;;;;;;;0.55;0.55;;;24.30;34.00;;;;;;5411052;26;20077;-78
2024/04/09 09:24:37;;;;;;;0.90;0.90;;;24.60;33.20;;;;;;5420914;26;20049;-77
2024/04/09 09:27:04;;;;;;;0.40;0.40;;;23.50;34.80;;;;;;5391404;26;20015;-77
2024/04/09 09:29:31;;;;;;;0.77;0.77;;;23.30;35.40;;;;;;5388676;26;20032;-77
2024/04/09 09:31:57;;;;;;;0.10;0.10;;;24.20;33.70;;;;;;5401921;26;20056;-77
2024/04/09 09:34:42;;;;;;;0.17;0.17;;;23.40;32.30;;;;;;5384853;26;20000;-77
2024/04/09 09:37:10;;;;;;;1.00;1.00;;;22.40;34.70;;;;;;5385140;26;20000;-78
2024/04/09 09:39:37;;;;;;;0.22;0.22;;;22.80;35.10;;;;;;5384146;26;20000;-78
2024/04/09 09:42:04;;;;;;;0.00;0.00;;;22.20;35.60;;;;;;5393225;26;19996;-77
2024/04/09 09:44:34;;;;;;;0.50;0.50;;;21.10;37.10;;;;;;5383789;26;20008;-77
2024/04/09 09:47:01;;;;;;;0.70;0.70;;;21.60;36.80;;;;;;5383426;26;20004;-77
2024/04/09 09:49:28;;;;;;;0.60;0.60;;;22.40;35.80;;;;;;5411745;26;20071;-77
2024/04/09 09:51:55;;;;;;;1.00;1.00;;;23.20;34.00;;;;;;5419982;26;20000;-77
2024/04/09 09:54:22;;;;;;;0.90;0.90;;;23.80;34.00;;;;;;5420871;26;19996;-78
2024/04/09 09:56:51;;;;;;;1.00;1.00;;;24.10;32.80;;;;;;5420489;26;20000;-78
2024/04/09 09:59:19;;;;;;;0.90;0.90;;;24.40;32.40;;;;;;5408393;26;20005;-77
2024/04/09 10:01:50;;;;;;;1.00;1.00;;;24.80;33.00;;;;;;5421173;26;20007;-78
2024/04/09 10:04:22;;;;;;;0.90;0.90;;;24.80;30.70;;;;;;5446475;26;20075;-78
2024/04/09 10:06:57;;;;;;;;;;;24.80;31.60;;;;;;5448055;26;20010;-77
2024/04/09 10:09:48;;;;;;;0.30;0.30;;;24.40;31.10;;;;;;5416437;26;19925;-77
2024/04/09 10:12:24;;;;;;;0.10;0.10;;;24.00;30.50;;;;;;5409746;26;20037;-77
2024/04/09 10:14:55;;;;;;;0.43;0.43;;;23.10;33.40;;;;;;5416139;26;20348;-77
2024/04/09 10:17:21;;;;;;;0.70;0.70;;;22.60;33.90;;;;;;5417313;26;20007;-78
2024/04/09 10:19:48;;;;;;;0.80;0.80;;;22.50;34.10;;;;;;5414188;26;20011;-77
2024/04/09 10:22:17;;;;;;;0.10;0.10;;;22.20;34.40;;;;;;5425068;26;19999;-77
2024/04/09 10:24:43;;;;;;;0.00;0.00;;;22.00;34.90;;;;;;5453071;26;20015;-77
2024/04/09 10:27:11;;;;;;;0.00;0.00;;;21.40;35.10;;;;;;5453236;26;20083;-77
2024/04/09 10:29:37;;;;;;;0.10;0.10;;;21.00;36.20;;;;;;5432805;26;20462;-77
2024/04/09 10:32:13;;;;;;;0.10;0.10;;;20.60;36.70;;;;;;5453215;26;20023;-78
2024/04/09 10:34:41;;;;;;;0.10;0.10;;;20.20;35.90;;;;;;5451811;26;20395;-78
2024/04/09 10:37:07;;;;;;;0.10;0.10;;;20.10;37.10;;;;;;5419444;26;19995;-77
2024/04/09 10:39:34;;;;;;;0.10;0.10;;;19.80;37.50;;;;;;5418540;26;20006;-77
2024/04/09 10:42:00;;;;;;;0.10;0.10;;;19.40;37.70;;;;;;5441040;26;20007;-76
2024/04/09 10:44:26;;;;;;;0.10;0.10;;;19.20;39.50;;;;;;5436464;26;20019;-76
2024/04/09 10:46:52;;;;;;;0.10;0.10;;;19.10;39.80;;;;;;5416608;26;20084;-76
2024/04/09 10:49:18;;;;;;;0.10;0.10;;;18.80;38.20;;;;;;5415649;26;20011;-78
2024/04/09 10:51:48;;;;;;;0.10;0.10;;;18.60;37.20;;;;;;5415818;26;19999;-77
2024/04/09 10:54:15;;;;;;;0.10;0.10;;;18.50;38.50;;;;;;5412307;26;20003;-77
2024/04/09 10:56:41;;;;;;;0.10;0.10;;;18.80;39.50;;;;;;5420875;26;19995;-77
2024/04/09 10:59:17;;;;;;;0.10;0.10;;;18.60;38.20;;;;;;5457002;26;20006;-77
2024/04/09 11:01:42;;;;;;;0.10;0.10;;;18.60;38.20;;;;;;5453703;26;20010;-77
2024/04/09 11:04:13;;;;;;;0.10;0.10;;;18.60;37.90;;;;;;5430259;26;20015;-77
2024/04/09 11:06:41;;;;;;;0.10;0.10;;;18.70;38.80;;;;;;5418439;26;20015;-77
2024/04/09 11:09:08;;;;;;;0.10;0.10;;;18.90;38.30;;;;;;5416388;26;20069;-76
2024/04/09 11:11:34;;;;;;;0.00;0.00;;;19.00;39.00;;;;;;5420724;26;19999;-76
2024/04/09 11:14:02;;;;;;;0.00;0.00;;;18.60;38.70;;;;;;5415351;26;20789;-76
2024/04/09 11:16:28;;;;;;;0.10;0.10;;;18.00;41.20;;;;;;5420478;26;20076;-77
2024/04/09 11:18:58;;;;;;;0.08;0.08;;;17.10;45.70;;;;;;5419392;26;20003;-76
2024/04/09 11:21:23;;;;;;;0.10;0.10;;;16.90;47.10;;;;;;5413174;26;20003;-76
2024/04/09 11:23:49;;;;;;;0.10;0.10;;;17.20;48.00;;;;;;5417976;26;20003;-77
2024/04/09 11:26:15;;;;;;;0.03;0.03;;;17.10;47.40;;;;;;5419110;26;20014;-76
2024/04/09 11:28:52;;;;;;;0.00;0.00;;;17.10;47.70;;;;;;5418203;26;20019;-76
2024/04/09 11:31:23;;;;;;;0.10;0.10;;;17.00;47.10;;;;;;5418810;26;20031;-76
2024/04/09 11:33:50;;;;;;;0.10;0.10;;;16.90;47.30;;;;;;5420474;26;20031;-76
2024/04/09 11:36:16;;;;;;;0.10;0.10;;;17.30;46.40;;;;;;5415523;26;19991;-76
2024/04/09 11:38:42;;;;;;;0.10;0.10;;;17.60;44.70;;;;;;5419627;26;20453;-76
2024/04/09 11:41:08;;;;;;;0.10;0.10;;;17.20;42.10;;;;;;5414093;26;20011;-76
2024/04/09 11:43:34;;;;;;;0.00;0.00;;;17.00;42.50;;;;;;5420358;26;20026;-76
2024/04/09 11:46:01;;;;;;;0.00;0.00;;;17.00;42.40;;;;;;5415335;26;20010;-76
2024/04/09 11:48:27;;;;;;;0.10;0.10;;;16.60;41.50;;;;;;5417644;26;20018;-75
2024/04/09 11:50:52;;;;;;;0.10;0.10;;;16.40;41.80;;;;;;5403853;26;19996;-76
2024/04/09 11:53:18;;;;;;;0.10;0.10;;;16.60;42.40;;;;;;5399991;26;20024;-76
2024/04/09 11:55:44;;;;;;;0.10;0.10;;;16.60;42.70;;;;;;5409422;26;19996;-76
2024/04/09 11:58:10;;;;;;;0.10;0.10;;;16.50;42.50;;;;;;5401941;26;20004;-76
2024/04/09 12:00:36;;;;;;;0.10;0.10;;;16.30;43.20;;;;;;5406447;26;20010;-76
2024/04/09 12:03:03;;;;;;;0.10;0.10;;;16.10;43.70;;;;;;5429119;26;20500;-76
2024/04/09 12:05:29;;;;;;;0.10;0.10;;;16.00;44.90;;;;;;5450818;26;20014;-76
2024/04/09 12:07:55;;;;;;;0.10;0.10;;;16.20;45.70;;;;;;5419172;26;20007;-76
2024/04/09 12:10:22;;;;;;;0.10;0.10;;;16.20;45.30;;;;;;5408965;26;20008;-77
2024/04/09 12:12:48;;;;;;;0.10;0.10;;;16.60;46.20;;;;;;5385352;26;20829;-76
2024/04/09 12:15:14;;;;;;;0.10;0.10;;;16.80;50.00;;;;;;5385114;26;20427;-76
2024/04/09 12:17:42;;;;;;;0.10;0.10;;;17.00;51.60;;;;;;5389012;26;20073;-76
2024/04/09 12:20:08;;;;;;;0.10;0.10;;;16.80;48.80;;;;;;5421519;26;20474;-77
2024/04/09 12:22:34;;;;;;;0.05;0.05;;;16.70;47.10;;;;;;5421717;26;20011;-77
2024/04/09 12:25:00;;;;;;;0.10;0.10;;;16.60;43.90;;;;;;5419412;26;20000;-76
2024/04/09 12:27:26;;;;;;;0.10;0.10;;;16.40;44.20;;;;;;5385768;26;20000;-77
2024/04/09 12:29:52;;;;;;;0.10;0.10;;;16.50;42.60;;;;;;5393680;26;20010;-77
2024/04/09 12:32:18;;;;;;;0.10;0.10;;;16.20;41.80;;;;;;5421425;26;20014;-76
2024/04/09 12:34:45;;;;;;;0.10;0.10;;;16.50;42.80;;;;;;5420262;26;20003;-76
2024/04/09 12:37:10;;;;;;;0.10;0.10;;;16.90;43.60;;;;;;5385782;26;20005;-76
2024/04/09 12:39:37;;;;;;;0.10;0.10;;;17.10;42.90;;;;;;5386408;26;20015;-76
2024/04/09 12:42:03;;;;;;;0.10;0.10;;;17.20;42.80;;;;;;5382990;26;20177;-76
2024/04/09 12:44:29;;;;;;;0.10;0.10;;;17.10;42.80;;;;;;5407357;26;20003;-77
2024/04/09 12:46:55;;;;;;;0.10;0.10;;;17.20;44.60;;;;;;5399779;26;20028;-76
2024/04/09 12:49:29;;;;;;;0.10;0.10;;;17.20;45.10;;;;;;5405171;26;20039;-77
2024/04/09 12:51:55;;;;;;;0.00;0.00;;;17.00;45.00;;;;;;5421253;26;20408;-76